sensor_id;sensor_type;location;lat;lon;timestamp;temperature;humidity
15636;DHT22;7917;50.818;6.972;2024-03-07T00:00:09;4.20;99.90
15636;DHT22;7917;50.818;6.972;2024-03-07T00:02:40;4.10;99.90
15636;DHT22;7917;50.818;6.972;2024-03-07T00:05:07;4.10;99.90
15636;DHT22;7917;50.818;6.972;2024-03-07T00:07:34;4.10;99.90
15636;DHT22;7917;50.818;6.972;2024-03-07T00:10:01;4.10;99.90
15636;DHT22;7917;50.818;6.972;2024-03-07T00:12:29;4.10;99.90
15636;DHT22;7917;50.818;6.972;2024-03-07T00:14:56;4.20;99.90
15636;DHT22;7917;50.818;6.972;2024-03-07T00:17:22;4.10;99.90
15636;DHT22;7917;50.818;6.972;2024-03-07T00:19:49;4.10;99.90
15636;DHT22;7917;50.818;6.972;2024-03-07T00:22:15;4.10;99.90
15636;DHT22;7917;50.818;6.972;2024-03-07T00:24:45;4.20;99.90
15636;DHT22;7917;50.818;6.972;2024-03-07T00:27:14;4.20;99.90
15636;DHT22;7917;50.818;6.972;2024-03-07T00:29:40;4.30;99.90
15636;DHT22;7917;50.818;6.972;2024-03-07T00:32:07;4.30;99.90
15636;DHT22;7917;50.818;6.972;2024-03-07T00:34:34;4.20;99.90
15636;DHT22;7917;50.818;6.972;2024-03-07T00:37:00;4.30;99.90
15636;DHT22;7917;50.818;6.972;2024-03-07T00:39:30;4.30;99.90
15636;DHT22;7917;50.818;6.972;2024-03-07T00:41:56;4.30;99.90
15636;DHT22;7917;50.818;6.972;2024-03-07T00:44:24;4.20;99.90
15636;DHT22;7917;50.818;6.972;2024-03-07T00:46:50;4.10;99.90
15636;DHT22;7917;50.818;6.972;2024-03-07T00:49:18;4.10;99.90
15636;DHT22;7917;50.818;6.972;2024-03-07T00:51:44;4.00;99.90
15636;DHT22;7917;50.818;6.972;2024-03-07T00:54:11;3.90;99.90
15636;DHT22;7917;50.818;6.972;2024-03-07T00:56:38;3.90;99.90
15636;DHT22;7917;50.818;6.972;2024-03-07T00:59:05;3.90;99.90
15636;DHT22;7917;50.818;6.972;2024-03-07T01:01:32;3.80;99.90
15636;DHT22;7917;50.818;6.972;2024-03-07T01:04:02;3.70;99.90
15636;DHT22;7917;50.818;6.972;2024-03-07T01:06:29;3.60;99.90
15636;DHT22;7917;50.818;6.972;2024-03-07T01:08:55;3.60;99.90
15636;DHT22;7917;50.818;6.972;2024-03-07T01:11:29;3.50;99.90
15636;DHT22;7917;50.818;6.972;2024-03-07T01:13:59;3.60;99.90
15636;DHT22;7917;50.818;6.972;2024-03-07T01:16:25;3.60;99.90
15636;DHT22;7917;50.818;6.972;2024-03-07T01:18:52;3.60;99.90
15636;DHT22;7917;50.818;6.972;2024-03-07T01:21:20;3.60;99.90
15636;DHT22;7917;50.818;6.972;2024-03-07T01:23:46;3.60;99.90
15636;DHT22;7917;50.818;6.972;2024-03-07T01:26:16;3.60;99.90
15636;DHT22;7917;50.818;6.972;2024-03-07T01:28:43;3.60;99.90
15636;DHT22;7917;50.818;6.972;2024-03-07T01:31:09;3.60;99.90
15636;DHT22;7917;50.818;6.972;2024-03-07T01:33:36;3.50;99.90
15636;DHT22;7917;50.818;6.972;2024-03-07T01:36:04;3.50;99.90
15636;DHT22;7917;50.818;6.972;2024-03-07T01:38:30;3.40;99.90
15636;DHT22;7917;50.818;6.972;2024-03-07T01:40:57;3.40;99.90
15636;DHT22;7917;50.818;6.972;2024-03-07T01:43:23;3.40;99.90
15636;DHT22;7917;50.818;6.972;2024-03-07T01:45:54;3.50;99.90
15636;DHT22;7917;50.818;6.972;2024-03-07T01:48:27;3.60;99.90
15636;DHT22;7917;50.818;6.972;2024-03-07T01:50:54;3.60;99.90
15636;DHT22;7917;50.818;6.972;2024-03-07T01:53:22;3.60;99.90
15636;DHT22;7917;50.818;6.972;2024-03-07T01:55:49;3.60;99.90
15636;DHT22;7917;50.818;6.972;2024-03-07T01:58:19;3.50;99.90
15636;DHT22;7917;50.818;6.972;2024-03-07T02:00:47;3.50;99.90
15636;DHT22;7917;50.818;6.972;2024-03-07T02:03:13;3.40;99.90
15636;DHT22;7917;50.818;6.972;2024-03-07T02:05:40;3.40;99.90
15636;DHT22;7917;50.818;6.972;2024-03-07T02:08:06;3.40;99.90
15636;DHT22;7917;50.818;6.972;2024-03-07T02:10:34;3.40;99.90
15636;DHT22;7917;50.818;6.972;2024-03-07T02:13:01;3.30;99.90
15636;DHT22;7917;50.818;6.972;2024-03-07T02:15:28;3.20;99.90
15636;DHT22;7917;50.818;6.972;2024-03-07T02:17:55;3.10;99.90
15636;DHT22;7917;50.818;6.972;2024-03-07T02:20:21;3.20;99.90
15636;DHT22;7917;50.818;6.972;2024-03-07T02:22:48;3.20;99.90
15636;DHT22;7917;50.818;6.972;2024-03-07T02:25:16;3.10;99.90
15636;DHT22;7917;50.818;6.972;2024-03-07T02:27:43;3.00;99.90
15636;DHT22;7917;50.818;6.972;2024-03-07T02:30:12;2.90;99.90
15636;DHT22;7917;50.818;6.972;2024-03-07T02:32:38;2.90;99.90
15636;DHT22;7917;50.818;6.972;2024-03-07T02:35:06;2.90;99.90
15636;DHT22;7917;50.818;6.972;2024-03-07T02:37:34;2.80;99.90
15636;DHT22;7917;50.818;6.972;2024-03-07T02:40:05;2.80;99.90
15636;DHT22;7917;50.818;6.972;2024-03-07T02:42:33;2.80;99.90
15636;DHT22;7917;50.818;6.972;2024-03-07T02:45:01;2.80;99.90
15636;DHT22;7917;50.818;6.972;2024-03-07T02:47:28;2.80;99.90
15636;DHT22;7917;50.818;6.972;2024-03-07T02:49:55;2.70;99.90
15636;DHT22;7917;50.818;6.972;2024-03-07T02:52:21;2.60;99.90
15636;DHT22;7917;50.818;6.972;2024-03-07T02:54:47;2.50;99.90
15636;DHT22;7917;50.818;6.972;2024-03-07T02:57:15;2.60;99.90
15636;DHT22;7917;50.818;6.972;2024-03-07T02:59:42;2.60;99.90
15636;DHT22;7917;50.818;6.972;2024-03-07T03:02:13;2.60;99.90
15636;DHT22;7917;50.818;6.972;2024-03-07T03:04:42;2.50;99.90
15636;DHT22;7917;50.818;6.972;2024-03-07T03:07:09;2.50;99.90
15636;DHT22;7917;50.818;6.972;2024-03-07T03:09:35;2.60;99.90
15636;DHT22;7917;50.818;6.972;2024-03-07T03:12:06;2.60;99.90
15636;DHT22;7917;50.818;6.972;2024-03-07T03:14:34;2.50;99.90
15636;DHT22;7917;50.818;6.972;2024-03-07T03:17:04;2.40;99.90
15636;DHT22;7917;50.818;6.972;2024-03-07T03:19:30;2.40;99.90
15636;DHT22;7917;50.818;6.972;2024-03-07T03:21:59;2.40;99.90
15636;DHT22;7917;50.818;6.972;2024-03-07T03:24:25;2.40;99.90
15636;DHT22;7917;50.818;6.972;2024-03-07T03:26:52;2.30;99.90
15636;DHT22;7917;50.818;6.972;2024-03-07T03:29:19;2.30;99.90
15636;DHT22;7917;50.818;6.972;2024-03-07T03:31:46;2.30;99.90
15636;DHT22;7917;50.818;6.972;2024-03-07T03:34:15;2.20;99.90
15636;DHT22;7917;50.818;6.972;2024-03-07T03:36:42;2.20;99.90
15636;DHT22;7917;50.818;6.972;2024-03-07T03:39:08;2.20;99.90
15636;DHT22;7917;50.818;6.972;2024-03-07T03:41:37;2.20;99.90
15636;DHT22;7917;50.818;6.972;2024-03-07T03:44:03;2.20;99.90
15636;DHT22;7917;50.818;6.972;2024-03-07T03:46:30;2.10;99.90
15636;DHT22;7917;50.818;6.972;2024-03-07T03:48:57;2.10;99.90
15636;DHT22;7917;50.818;6.972;2024-03-07T03:51:23;2.00;99.90
15636;DHT22;7917;50.818;6.972;2024-03-07T03:53:50;2.00;99.90
15636;DHT22;7917;50.818;6.972;2024-03-07T03:56:19;2.00;99.90
15636;DHT22;7917;50.818;6.972;2024-03-07T03:58:45;2.00;99.90
15636;DHT22;7917;50.818;6.972;2024-03-07T04:04:38;1.90;99.90
15636;DHT22;7917;50.818;6.972;2024-03-07T04:07:04;1.80;99.90
15636;DHT22;7917;50.818;6.972;2024-03-07T04:09:31;1.90;99.90
15636;DHT22;7917;50.818;6.972;2024-03-07T04:12:00;1.90;99.90
15636;DHT22;7917;50.818;6.972;2024-03-07T04:14:27;1.90;99.90
15636;DHT22;7917;50.818;6.972;2024-03-07T04:16:56;1.80;99.90
15636;DHT22;7917;50.818;6.972;2024-03-07T04:19:22;1.80;99.90
15636;DHT22;7917;50.818;6.972;2024-03-07T04:21:49;1.80;99.90
15636;DHT22;7917;50.818;6.972;2024-03-07T04:24:16;1.80;99.90
15636;DHT22;7917;50.818;6.972;2024-03-07T04:26:42;1.70;99.90
15636;DHT22;7917;50.818;6.972;2024-03-07T04:29:09;1.70;99.90
15636;DHT22;7917;50.818;6.972;2024-03-07T04:31:36;1.70;99.90
15636;DHT22;7917;50.818;6.972;2024-03-07T04:34:03;1.60;99.90
15636;DHT22;7917;50.818;6.972;2024-03-07T04:36:30;1.60;99.90
15636;DHT22;7917;50.818;6.972;2024-03-07T04:38:59;1.50;99.90
15636;DHT22;7917;50.818;6.972;2024-03-07T04:41:28;1.60;99.90
15636;DHT22;7917;50.818;6.972;2024-03-07T04:43:55;1.50;99.90
15636;DHT22;7917;50.818;6.972;2024-03-07T04:46:22;1.50;99.90
15636;DHT22;7917;50.818;6.972;2024-03-07T04:48:48;1.50;99.90
15636;DHT22;7917;50.818;6.972;2024-03-07T04:51:15;1.60;99.90
15636;DHT22;7917;50.818;6.972;2024-03-07T04:53:41;1.50;99.90
15636;DHT22;7917;50.818;6.972;2024-03-07T04:56:14;1.80;99.90
15636;DHT22;7917;50.818;6.972;2024-03-07T04:58:43;1.50;99.90
15636;DHT22;7917;50.818;6.972;2024-03-07T05:01:10;1.50;99.90
15636;DHT22;7917;50.818;6.972;2024-03-07T05:03:36;1.50;99.90
15636;DHT22;7917;50.818;6.972;2024-03-07T05:06:03;1.50;99.90
15636;DHT22;7917;50.818;6.972;2024-03-07T05:08:29;1.40;99.90
15636;DHT22;7917;50.818;6.972;2024-03-07T05:10:59;1.40;99.90
15636;DHT22;7917;50.818;6.972;2024-03-07T05:13:26;1.50;99.90
15636;DHT22;7917;50.818;6.972;2024-03-07T05:15:53;1.50;99.90
15636;DHT22;7917;50.818;6.972;2024-03-07T05:18:21;1.60;99.90
15636;DHT22;7917;50.818;6.972;2024-03-07T05:20:49;1.70;99.90
15636;DHT22;7917;50.818;6.972;2024-03-07T05:23:15;1.80;99.90
15636;DHT22;7917;50.818;6.972;2024-03-07T05:25:42;1.90;99.90
15636;DHT22;7917;50.818;6.972;2024-03-07T05:28:11;2.10;99.90
15636;DHT22;7917;50.818;6.972;2024-03-07T05:30:38;2.20;99.90
15636;DHT22;7917;50.818;6.972;2024-03-07T05:33:05;2.30;99.90
15636;DHT22;7917;50.818;6.972;2024-03-07T05:35:32;2.40;99.90
15636;DHT22;7917;50.818;6.972;2024-03-07T05:37:59;2.50;99.90
15636;DHT22;7917;50.818;6.972;2024-03-07T05:40:27;2.70;99.90
15636;DHT22;7917;50.818;6.972;2024-03-07T05:42:54;2.80;99.90
15636;DHT22;7917;50.818;6.972;2024-03-07T05:45:21;2.80;99.90
15636;DHT22;7917;50.818;6.972;2024-03-07T05:47:54;2.90;99.90
15636;DHT22;7917;50.818;6.972;2024-03-07T05:50:22;2.90;99.90
15636;DHT22;7917;50.818;6.972;2024-03-07T05:52:48;2.90;99.90
15636;DHT22;7917;50.818;6.972;2024-03-07T05:55:15;3.00;99.90
15636;DHT22;7917;50.818;6.972;2024-03-07T05:57:43;3.10;99.90
15636;DHT22;7917;50.818;6.972;2024-03-07T06:00:12;3.20;99.90
15636;DHT22;7917;50.818;6.972;2024-03-07T06:02:40;3.20;99.90
15636;DHT22;7917;50.818;6.972;2024-03-07T06:05:08;3.20;99.90
15636;DHT22;7917;50.818;6.972;2024-03-07T06:07:38;3.20;99.90
15636;DHT22;7917;50.818;6.972;2024-03-07T06:10:06;3.20;99.90
15636;DHT22;7917;50.818;6.972;2024-03-07T06:12:37;3.30;99.90
15636;DHT22;7917;50.818;6.972;2024-03-07T06:15:11;3.30;99.90
15636;DHT22;7917;50.818;6.972;2024-03-07T06:17:38;3.40;99.90
15636;DHT22;7917;50.818;6.972;2024-03-07T06:20:14;3.40;99.90
15636;DHT22;7917;50.818;6.972;2024-03-07T06:22:48;3.40;99.90
15636;DHT22;7917;50.818;6.972;2024-03-07T06:25:16;3.40;99.90
15636;DHT22;7917;50.818;6.972;2024-03-07T06:27:46;3.40;99.90
15636;DHT22;7917;50.818;6.972;2024-03-07T06:30:15;3.40;99.90
15636;DHT22;7917;50.818;6.972;2024-03-07T06:32:42;3.40;99.90
15636;DHT22;7917;50.818;6.972;2024-03-07T06:35:09;3.50;99.90
15636;DHT22;7917;50.818;6.972;2024-03-07T06:37:36;3.60;99.90
15636;DHT22;7917;50.818;6.972;2024-03-07T06:40:03;3.60;99.90
15636;DHT22;7917;50.818;6.972;2024-03-07T06:42:35;3.60;99.90
15636;DHT22;7917;50.818;6.972;2024-03-07T06:45:02;3.60;99.90
15636;DHT22;7917;50.818;6.972;2024-03-07T06:47:29;3.70;99.90
15636;DHT22;7917;50.818;6.972;2024-03-07T06:49:55;3.70;99.90
15636;DHT22;7917;50.818;6.972;2024-03-07T06:52:23;3.70;99.90
15636;DHT22;7917;50.818;6.972;2024-03-07T06:54:49;3.60;99.90
15636;DHT22;7917;50.818;6.972;2024-03-07T06:57:17;3.60;99.90
15636;DHT22;7917;50.818;6.972;2024-03-07T06:59:44;3.60;99.90
15636;DHT22;7917;50.818;6.972;2024-03-07T07:02:10;3.60;99.90
15636;DHT22;7917;50.818;6.972;2024-03-07T07:04:37;3.60;99.90
15636;DHT22;7917;50.818;6.972;2024-03-07T07:07:09;3.70;99.90
15636;DHT22;7917;50.818;6.972;2024-03-07T07:09:39;3.80;99.90
15636;DHT22;7917;50.818;6.972;2024-03-07T07:12:06;4.00;99.90
15636;DHT22;7917;50.818;6.972;2024-03-07T07:14:33;4.10;99.90
15636;DHT22;7917;50.818;6.972;2024-03-07T07:17:01;4.20;99.90
15636;DHT22;7917;50.818;6.972;2024-03-07T07:19:28;4.40;99.90
15636;DHT22;7917;50.818;6.972;2024-03-07T07:21:55;4.50;99.90
15636;DHT22;7917;50.818;6.972;2024-03-07T07:24:22;4.70;99.90
15636;DHT22;7917;50.818;6.972;2024-03-07T07:26:50;4.80;99.90
15636;DHT22;7917;50.818;6.972;2024-03-07T07:29:17;5.00;99.90
15636;DHT22;7917;50.818;6.972;2024-03-07T07:31:44;5.10;99.90
15636;DHT22;7917;50.818;6.972;2024-03-07T07:34:11;5.30;99.90
15636;DHT22;7917;50.818;6.972;2024-03-07T07:36:38;5.60;99.90
15636;DHT22;7917;50.818;6.972;2024-03-07T07:39:11;5.80;99.90
15636;DHT22;7917;50.818;6.972;2024-03-07T07:41:42;5.90;99.90
15636;DHT22;7917;50.818;6.972;2024-03-07T07:44:09;6.00;99.90
15636;DHT22;7917;50.818;6.972;2024-03-07T07:46:36;6.10;99.90
15636;DHT22;7917;50.818;6.972;2024-03-07T07:49:02;6.10;99.90
15636;DHT22;7917;50.818;6.972;2024-03-07T07:51:32;6.00;99.90
15636;DHT22;7917;50.818;6.972;2024-03-07T07:53:58;6.10;99.90
15636;DHT22;7917;50.818;6.972;2024-03-07T07:56:25;6.10;99.90
15636;DHT22;7917;50.818;6.972;2024-03-07T07:58:54;6.10;99.90
15636;DHT22;7917;50.818;6.972;2024-03-07T08:01:21;6.20;99.90
15636;DHT22;7917;50.818;6.972;2024-03-07T08:03:48;6.20;99.90
15636;DHT22;7917;50.818;6.972;2024-03-07T08:06:21;6.30;99.90
15636;DHT22;7917;50.818;6.972;2024-03-07T08:08:48;6.50;99.90
15636;DHT22;7917;50.818;6.972;2024-03-07T08:11:16;6.60;99.90
15636;DHT22;7917;50.818;6.972;2024-03-07T08:13:42;6.70;99.90
15636;DHT22;7917;50.818;6.972;2024-03-07T08:19:17;6.90;99.90
15636;DHT22;7917;50.818;6.972;2024-03-07T08:21:43;7.10;99.90
15636;DHT22;7917;50.818;6.972;2024-03-07T08:24:11;7.10;99.90
15636;DHT22;7917;50.818;6.972;2024-03-07T08:26:38;7.10;99.90
15636;DHT22;7917;50.818;6.972;2024-03-07T08:29:10;7.10;99.90
15636;DHT22;7917;50.818;6.972;2024-03-07T08:31:38;7.10;99.90
15636;DHT22;7917;50.818;6.972;2024-03-07T08:34:04;7.20;99.90
15636;DHT22;7917;50.818;6.972;2024-03-07T08:36:31;7.40;99.90
15636;DHT22;7917;50.818;6.972;2024-03-07T08:38:58;7.50;99.90
15636;DHT22;7917;50.818;6.972;2024-03-07T08:41:25;7.50;99.90
15636;DHT22;7917;50.818;6.972;2024-03-07T08:43:51;7.60;99.90
15636;DHT22;7917;50.818;6.972;2024-03-07T08:46:18;7.70;99.90
15636;DHT22;7917;50.818;6.972;2024-03-07T08:48:44;7.90;99.90
15636;DHT22;7917;50.818;6.972;2024-03-07T08:51:11;7.80;99.90
15636;DHT22;7917;50.818;6.972;2024-03-07T08:53:38;7.90;99.90
15636;DHT22;7917;50.818;6.972;2024-03-07T08:56:05;8.10;99.90
15636;DHT22;7917;50.818;6.972;2024-03-07T08:58:32;8.30;99.90
15636;DHT22;7917;50.818;6.972;2024-03-07T09:00:59;8.30;99.90
15636;DHT22;7917;50.818;6.972;2024-03-07T09:03:26;8.40;99.90
15636;DHT22;7917;50.818;6.972;2024-03-07T09:05:52;8.30;99.90
15636;DHT22;7917;50.818;6.972;2024-03-07T09:08:19;8.50;99.90
15636;DHT22;7917;50.818;6.972;2024-03-07T09:10:47;8.40;99.90
15636;DHT22;7917;50.818;6.972;2024-03-07T09:13:17;8.40;99.90
15636;DHT22;7917;50.818;6.972;2024-03-07T09:15:43;8.40;99.90
15636;DHT22;7917;50.818;6.972;2024-03-07T09:18:10;8.40;99.90
15636;DHT22;7917;50.818;6.972;2024-03-07T09:20:37;8.30;99.90
15636;DHT22;7917;50.818;6.972;2024-03-07T09:23:08;8.20;99.90
15636;DHT22;7917;50.818;6.972;2024-03-07T09:25:41;8.30;99.90
15636;DHT22;7917;50.818;6.972;2024-03-07T09:28:09;8.20;99.90
15636;DHT22;7917;50.818;6.972;2024-03-07T09:30:36;8.10;99.90
15636;DHT22;7917;50.818;6.972;2024-03-07T09:33:04;7.90;99.90
15636;DHT22;7917;50.818;6.972;2024-03-07T09:35:31;7.90;99.90
15636;DHT22;7917;50.818;6.972;2024-03-07T09:37:58;8.20;99.90
15636;DHT22;7917;50.818;6.972;2024-03-07T09:40:25;8.30;99.90
15636;DHT22;7917;50.818;6.972;2024-03-07T09:42:51;8.20;99.90
15636;DHT22;7917;50.818;6.972;2024-03-07T09:45:21;8.30;99.90
15636;DHT22;7917;50.818;6.972;2024-03-07T09:47:49;8.30;99.90
15636;DHT22;7917;50.818;6.972;2024-03-07T09:50:18;8.30;99.90
15636;DHT22;7917;50.818;6.972;2024-03-07T09:52:48;8.20;99.90
15636;DHT22;7917;50.818;6.972;2024-03-07T09:55:16;8.10;99.90
15636;DHT22;7917;50.818;6.972;2024-03-07T09:57:44;8.00;99.90
15636;DHT22;7917;50.818;6.972;2024-03-07T10:00:13;8.10;99.90
15636;DHT22;7917;50.818;6.972;2024-03-07T10:02:53;8.30;99.90
15636;DHT22;7917;50.818;6.972;2024-03-07T10:05:22;8.50;99.90
15636;DHT22;7917;50.818;6.972;2024-03-07T10:07:50;8.50;99.90
15636;DHT22;7917;50.818;6.972;2024-03-07T10:10:18;8.70;99.90
15636;DHT22;7917;50.818;6.972;2024-03-07T10:12:44;8.70;99.90
15636;DHT22;7917;50.818;6.972;2024-03-07T10:15:11;8.70;99.90
15636;DHT22;7917;50.818;6.972;2024-03-07T10:17:39;8.80;99.90
15636;DHT22;7917;50.818;6.972;2024-03-07T10:20:07;8.80;99.90
15636;DHT22;7917;50.818;6.972;2024-03-07T10:22:36;8.80;99.90
15636;DHT22;7917;50.818;6.972;2024-03-07T10:25:04;8.90;99.90
15636;DHT22;7917;50.818;6.972;2024-03-07T10:27:31;9.00;99.90
15636;DHT22;7917;50.818;6.972;2024-03-07T10:29:57;9.20;99.90
15636;DHT22;7917;50.818;6.972;2024-03-07T10:32:25;9.20;99.90
15636;DHT22;7917;50.818;6.972;2024-03-07T10:34:52;9.40;99.90
15636;DHT22;7917;50.818;6.972;2024-03-07T10:37:19;9.40;99.90
15636;DHT22;7917;50.818;6.972;2024-03-07T10:39:47;9.30;99.90
15636;DHT22;7917;50.818;6.972;2024-03-07T10:42:15;9.20;99.90
15636;DHT22;7917;50.818;6.972;2024-03-07T10:44:46;9.10;99.90
15636;DHT22;7917;50.818;6.972;2024-03-07T10:47:16;9.30;99.90
15636;DHT22;7917;50.818;6.972;2024-03-07T10:50:16;9.50;99.90
15636;DHT22;7917;50.818;6.972;2024-03-07T10:52:49;9.50;99.90
15636;DHT22;7917;50.818;6.972;2024-03-07T10:55:30;9.70;99.90
15636;DHT22;7917;50.818;6.972;2024-03-07T10:58:15;9.90;99.90
15636;DHT22;7917;50.818;6.972;2024-03-07T11:00:47;10.00;99.90
15636;DHT22;7917;50.818;6.972;2024-03-07T11:03:15;9.80;99.90
15636;DHT22;7917;50.818;6.972;2024-03-07T11:05:44;9.90;99.90
15636;DHT22;7917;50.818;6.972;2024-03-07T11:08:12;10.00;99.90
15636;DHT22;7917;50.818;6.972;2024-03-07T11:10:42;10.20;99.90
15636;DHT22;7917;50.818;6.972;2024-03-07T11:13:13;10.20;99.90
15636;DHT22;7917;50.818;6.972;2024-03-07T11:15:43;10.20;99.90
15636;DHT22;7917;50.818;6.972;2024-03-07T11:18:10;10.60;99.90
15636;DHT22;7917;50.818;6.972;2024-03-07T11:20:39;10.70;99.90
15636;DHT22;7917;50.818;6.972;2024-03-07T11:23:28;10.60;99.90
15636;DHT22;7917;50.818;6.972;2024-03-07T11:25:55;11.20;99.90
15636;DHT22;7917;50.818;6.972;2024-03-07T11:28:29;11.30;99.90
15636;DHT22;7917;50.818;6.972;2024-03-07T11:31:12;11.40;99.90
15636;DHT22;7917;50.818;6.972;2024-03-07T11:33:39;11.50;99.90
15636;DHT22;7917;50.818;6.972;2024-03-07T11:36:10;11.70;99.90
15636;DHT22;7917;50.818;6.972;2024-03-07T11:38:38;11.60;99.90
15636;DHT22;7917;50.818;6.972;2024-03-07T11:41:10;11.70;99.90
15636;DHT22;7917;50.818;6.972;2024-03-07T11:43:39;11.50;99.90
15636;DHT22;7917;50.818;6.972;2024-03-07T11:46:08;11.60;99.90
15636;DHT22;7917;50.818;6.972;2024-03-07T11:48:39;11.80;99.90
15636;DHT22;7917;50.818;6.972;2024-03-07T11:51:12;11.80;99.90
15636;DHT22;7917;50.818;6.972;2024-03-07T11:53:40;11.90;99.90
15636;DHT22;7917;50.818;6.972;2024-03-07T11:56:07;11.80;99.90
15636;DHT22;7917;50.818;6.972;2024-03-07T11:58:41;12.00;99.90
15636;DHT22;7917;50.818;6.972;2024-03-07T12:01:10;12.30;99.90
15636;DHT22;7917;50.818;6.972;2024-03-07T12:03:40;12.20;99.90
15636;DHT22;7917;50.818;6.972;2024-03-07T12:06:12;11.80;99.90
15636;DHT22;7917;50.818;6.972;2024-03-07T12:08:42;11.80;99.90
15636;DHT22;7917;50.818;6.972;2024-03-07T12:11:09;11.60;99.90
15636;DHT22;7917;50.818;6.972;2024-03-07T12:13:41;11.40;99.90
15636;DHT22;7917;50.818;6.972;2024-03-07T12:16:08;11.40;99.90
15636;DHT22;7917;50.818;6.972;2024-03-07T12:18:35;11.40;99.90
15636;DHT22;7917;50.818;6.972;2024-03-07T12:21:03;11.20;99.90
15636;DHT22;7917;50.818;6.972;2024-03-07T12:23:32;11.30;99.90
15636;DHT22;7917;50.818;6.972;2024-03-07T12:26:00;11.20;99.90
15636;DHT22;7917;50.818;6.972;2024-03-07T12:28:28;11.40;99.90
15636;DHT22;7917;50.818;6.972;2024-03-07T12:30:59;11.60;99.90
15636;DHT22;7917;50.818;6.972;2024-03-07T12:33:29;11.60;99.90
15636;DHT22;7917;50.818;6.972;2024-03-07T12:35:57;11.70;99.90
15636;DHT22;7917;50.818;6.972;2024-03-07T12:38:31;11.90;99.90
15636;DHT22;7917;50.818;6.972;2024-03-07T12:41:08;12.00;99.90
15636;DHT22;7917;50.818;6.972;2024-03-07T12:43:40;12.00;99.90
15636;DHT22;7917;50.818;6.972;2024-03-07T12:46:10;12.20;99.90
15636;DHT22;7917;50.818;6.972;2024-03-07T12:48:38;12.60;99.90
15636;DHT22;7917;50.818;6.972;2024-03-07T12:51:05;12.60;99.90
15636;DHT22;7917;50.818;6.972;2024-03-07T12:53:33;12.20;99.90
15636;DHT22;7917;50.818;6.972;2024-03-07T12:56:00;12.00;99.90
15636;DHT22;7917;50.818;6.972;2024-03-07T12:58:29;11.60;99.90
15636;DHT22;7917;50.818;6.972;2024-03-07T13:00:57;11.20;99.90
15636;DHT22;7917;50.818;6.972;2024-03-07T13:03:24;11.00;99.90
15636;DHT22;7917;50.818;6.972;2024-03-07T13:05:55;10.80;99.90
15636;DHT22;7917;50.818;6.972;2024-03-07T13:08:26;10.60;99.90
15636;DHT22;7917;50.818;6.972;2024-03-07T13:10:55;10.50;99.90
15636;DHT22;7917;50.818;6.972;2024-03-07T13:13:21;10.20;99.90
15636;DHT22;7917;50.818;6.972;2024-03-07T13:15:49;10.20;99.90
15636;DHT22;7917;50.818;6.972;2024-03-07T13:18:20;10.20;99.90
15636;DHT22;7917;50.818;6.972;2024-03-07T13:20:47;10.40;99.90
15636;DHT22;7917;50.818;6.972;2024-03-07T13:23:14;10.50;99.90
15636;DHT22;7917;50.818;6.972;2024-03-07T13:25:41;10.90;99.90
15636;DHT22;7917;50.818;6.972;2024-03-07T13:28:11;11.20;99.90
15636;DHT22;7917;50.818;6.972;2024-03-07T13:30:41;11.50;99.90
15636;DHT22;7917;50.818;6.972;2024-03-07T13:33:10;11.50;99.90
15636;DHT22;7917;50.818;6.972;2024-03-07T13:35:38;11.10;99.90
15636;DHT22;7917;50.818;6.972;2024-03-07T13:38:06;10.80;99.90
15636;DHT22;7917;50.818;6.972;2024-03-07T13:40:33;10.60;99.90
15636;DHT22;7917;50.818;6.972;2024-03-07T13:43:07;10.30;99.90
15636;DHT22;7917;50.818;6.972;2024-03-07T13:45:36;10.10;99.90
15636;DHT22;7917;50.818;6.972;2024-03-07T13:48:06;10.10;99.90
15636;DHT22;7917;50.818;6.972;2024-03-07T13:50:35;9.90;99.90
15636;DHT22;7917;50.818;6.972;2024-03-07T13:53:06;9.90;99.90
15636;DHT22;7917;50.818;6.972;2024-03-07T13:55:52;9.80;99.90
15636;DHT22;7917;50.818;6.972;2024-03-07T13:58:38;9.90;99.90
15636;DHT22;7917;50.818;6.972;2024-03-07T14:01:20;9.90;99.90
15636;DHT22;7917;50.818;6.972;2024-03-07T14:04:33;10.00;99.90
15636;DHT22;7917;50.818;6.972;2024-03-07T14:07:29;10.10;99.90
15636;DHT22;7917;50.818;6.972;2024-03-07T14:13:18;10.40;99.90
15636;DHT22;7917;50.818;6.972;2024-03-07T14:16:19;10.50;99.90
15636;DHT22;7917;50.818;6.972;2024-03-07T14:19:28;10.60;99.90
15636;DHT22;7917;50.818;6.972;2024-03-07T14:25:14;10.60;99.90
15636;DHT22;7917;50.818;6.972;2024-03-07T14:27:58;10.80;99.90
15636;DHT22;7917;50.818;6.972;2024-03-07T14:30:40;10.90;99.90
15636;DHT22;7917;50.818;6.972;2024-03-07T14:33:13;11.10;99.90
15636;DHT22;7917;50.818;6.972;2024-03-07T14:35:58;11.10;99.90
15636;DHT22;7917;50.818;6.972;2024-03-07T14:38:29;11.00;99.90
15636;DHT22;7917;50.818;6.972;2024-03-07T14:40:57;11.00;99.90
15636;DHT22;7917;50.818;6.972;2024-03-07T14:43:25;11.00;99.90
15636;DHT22;7917;50.818;6.972;2024-03-07T14:45:58;11.00;99.90
15636;DHT22;7917;50.818;6.972;2024-03-07T14:48:26;10.80;99.90
15636;DHT22;7917;50.818;6.972;2024-03-07T14:50:55;10.80;99.90
15636;DHT22;7917;50.818;6.972;2024-03-07T14:53:22;10.70;99.90
15636;DHT22;7917;50.818;6.972;2024-03-07T14:55:49;10.60;99.90
15636;DHT22;7917;50.818;6.972;2024-03-07T14:58:23;10.50;99.90
15636;DHT22;7917;50.818;6.972;2024-03-07T15:00:50;10.30;99.90
15636;DHT22;7917;50.818;6.972;2024-03-07T15:03:19;10.20;99.90
15636;DHT22;7917;50.818;6.972;2024-03-07T15:05:46;10.10;99.90
15636;DHT22;7917;50.818;6.972;2024-03-07T15:08:13;10.10;99.90
15636;DHT22;7917;50.818;6.972;2024-03-07T15:10:47;10.00;99.90
15636;DHT22;7917;50.818;6.972;2024-03-07T15:13:15;9.90;99.90
15636;DHT22;7917;50.818;6.972;2024-03-07T15:15:43;9.80;99.90
15636;DHT22;7917;50.818;6.972;2024-03-07T15:18:10;9.70;99.90
15636;DHT22;7917;50.818;6.972;2024-03-07T15:20:37;9.70;99.90
15636;DHT22;7917;50.818;6.972;2024-03-07T15:23:04;9.70;99.90
15636;DHT22;7917;50.818;6.972;2024-03-07T15:25:32;9.60;99.90
15636;DHT22;7917;50.818;6.972;2024-03-07T15:28:00;9.60;99.90
15636;DHT22;7917;50.818;6.972;2024-03-07T15:30:27;9.60;99.90
15636;DHT22;7917;50.818;6.972;2024-03-07T15:32:59;9.60;99.90
15636;DHT22;7917;50.818;6.972;2024-03-07T15:35:26;9.60;99.90
15636;DHT22;7917;50.818;6.972;2024-03-07T15:37:53;9.60;99.90
15636;DHT22;7917;50.818;6.972;2024-03-07T15:40:20;9.60;99.90
15636;DHT22;7917;50.818;6.972;2024-03-07T15:42:48;9.60;99.90
15636;DHT22;7917;50.818;6.972;2024-03-07T15:45:18;9.50;99.90
15636;DHT22;7917;50.818;6.972;2024-03-07T15:47:46;9.40;99.90
15636;DHT22;7917;50.818;6.972;2024-03-07T15:50:15;9.40;99.90
15636;DHT22;7917;50.818;6.972;2024-03-07T15:52:44;9.40;99.90
15636;DHT22;7917;50.818;6.972;2024-03-07T15:55:12;9.40;99.90
15636;DHT22;7917;50.818;6.972;2024-03-07T15:57:49;9.40;99.90
15636;DHT22;7917;50.818;6.972;2024-03-07T16:00:20;9.40;99.90
15636;DHT22;7917;50.818;6.972;2024-03-07T16:02:54;9.50;99.90
15636;DHT22;7917;50.818;6.972;2024-03-07T16:05:22;9.50;99.90
15636;DHT22;7917;50.818;6.972;2024-03-07T16:07:50;9.40;99.90
15636;DHT22;7917;50.818;6.972;2024-03-07T16:10:17;9.40;99.90
15636;DHT22;7917;50.818;6.972;2024-03-07T16:12:43;9.40;99.90
15636;DHT22;7917;50.818;6.972;2024-03-07T16:15:11;9.30;99.90
15636;DHT22;7917;50.818;6.972;2024-03-07T16:17:46;9.30;99.90
15636;DHT22;7917;50.818;6.972;2024-03-07T16:20:13;9.30;99.90